createdAt,value
2019-03-23T00:01:43.445Z,3.10
2019-03-23T00:04:12.348Z,3.10
2019-03-23T00:06:41.377Z,3.00
2019-03-23T00:09:10.554Z,3.10
2019-03-23T00:11:39.782Z,3.10
2019-03-23T00:14:09.058Z,3.00
2019-03-23T00:16:38.036Z,3.00
2019-03-23T00:19:07.034Z,3.00
2019-03-23T00:21:36.187Z,3.00
2019-03-23T00:24:04.916Z,3.00
2019-03-23T00:26:35.804Z,3.00
2019-03-23T00:29:04.989Z,2.90
2019-03-23T00:31:34.360Z,2.90
2019-03-23T00:34:03.156Z,2.80
2019-03-23T00:36:41.016Z,2.80
2019-03-23T00:39:04.864Z,2.70
2019-03-23T00:41:33.905Z,2.70
2019-03-23T00:44:03.174Z,2.70
2019-03-23T00:46:32.036Z,2.70
2019-03-23T00:49:01.166Z,2.60
2019-03-23T00:51:30.979Z,2.60
2019-03-23T00:54:00.273Z,2.50
2019-03-23T00:56:30.185Z,2.50
2019-03-23T00:58:59.161Z,2.40
2019-03-23T01:01:28.801Z,2.40
2019-03-23T01:03:57.969Z,2.40
2019-03-23T01:06:26.858Z,2.30
2019-03-23T01:08:55.735Z,2.30
2019-03-23T01:11:24.477Z,2.30
2019-03-23T01:13:53.685Z,2.30
2019-03-23T01:16:23.306Z,2.30
2019-03-23T01:18:52.805Z,2.30
2019-03-23T01:21:21.556Z,2.30
2019-03-23T01:23:50.319Z,2.20
2019-03-23T01:26:19.301Z,2.30
2019-03-23T01:28:48.436Z,2.30
2019-03-23T01:31:18.755Z,2.30
2019-03-23T01:33:47.977Z,2.30
2019-03-23T01:36:17.184Z,2.30
2019-03-23T01:38:47.198Z,2.20
2019-03-23T01:41:16.163Z,2.10
2019-03-23T01:43:45.138Z,2.10
2019-03-23T01:46:13.866Z,2.00
2019-03-23T01:48:42.620Z,2.00
2019-03-23T01:51:12.229Z,2.00
2019-03-23T01:53:41.631Z,2.00
2019-03-23T01:56:10.906Z,1.90
2019-03-23T01:58:40.028Z,1.90
2019-03-23T02:01:09.262Z,2.00
2019-03-23T02:03:38.986Z,2.00
2019-03-23T02:06:07.921Z,2.00
2019-03-23T02:08:37.731Z,1.90
2019-03-23T02:11:06.923Z,1.90
2019-03-23T02:13:38.418Z,1.90
2019-03-23T02:16:07.597Z,1.80
2019-03-23T02:18:36.506Z,1.80
2019-03-23T02:21:06.419Z,1.70
2019-03-23T02:23:35.525Z,1.70
2019-03-23T02:26:23.188Z,1.70
2019-03-23T02:28:52.365Z,1.70
2019-03-23T02:31:21.120Z,1.80
2019-03-23T02:33:49.982Z,1.80
2019-03-23T02:36:21.296Z,1.70
2019-03-23T02:38:50.149Z,1.50
2019-03-23T02:41:18.967Z,1.50
2019-03-23T02:43:47.845Z,1.40
2019-03-23T02:46:17.026Z,1.40
2019-03-23T02:48:46.848Z,1.40
2019-03-23T02:51:15.483Z,1.40
2019-03-23T02:53:44.378Z,1.30
2019-03-23T02:56:14.351Z,1.30
2019-03-23T02:58:43.469Z,1.30
2019-03-23T03:01:12.516Z,1.20
2019-03-23T03:03:43.012Z,1.20
2019-03-23T03:06:13.113Z,1.10
2019-03-23T03:08:42.378Z,1.10
2019-03-23T03:11:11.729Z,1.10
2019-03-23T03:13:41.189Z,1.10
2019-03-23T03:16:10.185Z,1.10
2019-03-23T03:18:39.883Z,1.00
2019-03-23T03:21:08.659Z,1.00
2019-03-23T03:23:37.673Z,1.00
2019-03-23T03:26:06.761Z,1.00
2019-03-23T03:28:35.850Z,1.00
2019-03-23T03:31:04.666Z,1.00
2019-03-23T03:33:33.444Z,1.00
2019-03-23T03:36:02.175Z,1.00
2019-03-23T03:38:31.237Z,1.00
2019-03-23T03:41:00.287Z,1.00
2019-03-23T03:43:30.199Z,1.00
2019-03-23T03:45:59.227Z,1.00
2019-03-23T03:48:28.130Z,1.00
2019-03-23T03:50:58.216Z,1.00
2019-03-23T03:53:27.115Z,1.00
2019-03-23T03:55:56.433Z,1.00
2019-03-23T03:58:25.487Z,0.90
2019-03-23T04:00:54.391Z,0.90
2019-03-23T04:03:23.294Z,1.00
2019-03-23T04:05:52.367Z,0.90
2019-03-23T04:08:21.401Z,0.90
2019-03-23T04:10:50.221Z,0.90
2019-03-23T04:13:20.673Z,1.00
2019-03-23T04:15:50.993Z,0.90
2019-03-23T04:18:19.870Z,0.90
2019-03-23T04:20:48.986Z,0.90
2019-03-23T04:23:19.827Z,0.90
2019-03-23T04:25:48.741Z,0.90
2019-03-23T04:28:17.732Z,0.90
2019-03-23T04:30:47.131Z,0.90
2019-03-23T04:33:16.500Z,0.90
2019-03-23T04:35:45.470Z,0.90
2019-03-23T04:38:22.702Z,0.80
2019-03-23T04:40:46.520Z,0.80
2019-03-23T04:43:15.665Z,0.80
2019-03-23T04:45:45.941Z,0.70
2019-03-23T04:48:15.474Z,0.70
2019-03-23T04:50:44.325Z,0.60
2019-03-23T04:53:13.071Z,0.60
2019-03-23T04:55:42.768Z,0.60
2019-03-23T04:58:12.217Z,0.50
2019-03-23T05:00:41.559Z,0.60
2019-03-23T05:03:10.320Z,0.50
2019-03-23T05:05:39.526Z,0.60
2019-03-23T05:08:08.791Z,0.60
2019-03-23T05:10:37.594Z,0.60
2019-03-23T05:13:07.491Z,0.50
2019-03-23T05:15:36.707Z,0.50
2019-03-23T05:18:05.990Z,0.50
2019-03-23T05:20:35.011Z,0.50
2019-03-23T05:23:04.175Z,0.50
2019-03-23T05:25:33.290Z,0.60
2019-03-23T05:28:02.827Z,0.60
2019-03-23T05:30:32.014Z,0.60
2019-03-23T05:33:02.497Z,0.70
2019-03-23T05:35:31.975Z,0.80
2019-03-23T05:38:01.240Z,0.90
2019-03-23T05:40:30.819Z,0.80
2019-03-23T05:42:59.956Z,0.90
2019-03-23T05:45:29.340Z,0.90
2019-03-23T05:47:58.351Z,0.90
2019-03-23T05:50:28.744Z,1.00
2019-03-23T05:52:58.220Z,1.00
2019-03-23T05:55:27.551Z,1.10
2019-03-23T05:57:56.928Z,1.20
2019-03-23T06:00:29.565Z,1.40
2019-03-23T06:02:58.510Z,1.60
2019-03-23T06:05:27.316Z,1.80
2019-03-23T06:07:56.127Z,2.00
2019-03-23T06:10:29.037Z,2.50
2019-03-23T06:12:59.749Z,3.30
2019-03-23T06:15:31.554Z,4.30
2019-03-23T06:18:00.820Z,5.20
2019-03-23T06:20:30.195Z,5.90
2019-03-23T06:22:59.686Z,6.60
2019-03-23T06:25:32.550Z,7.00
2019-03-23T06:28:01.665Z,7.60
2019-03-23T06:30:31.210Z,7.90
2019-03-23T06:33:01.000Z,8.60
2019-03-23T06:35:32.543Z,9.10
2019-03-23T06:38:01.728Z,9.60
2019-03-23T06:40:36.895Z,10.10
2019-03-23T06:43:06.586Z,10.90
2019-03-23T06:45:36.038Z,11.30
2019-03-23T06:48:04.975Z,11.90
2019-03-23T06:50:36.548Z,12.50
2019-03-23T06:53:05.309Z,12.90
2019-03-23T06:55:34.549Z,13.20
2019-03-23T06:58:04.217Z,13.40
2019-03-23T07:00:33.533Z,13.60
2019-03-23T07:03:02.503Z,13.10
2019-03-23T07:05:32.079Z,13.10
2019-03-23T07:08:01.582Z,13.50
2019-03-23T07:10:32.153Z,13.80
2019-03-23T07:13:01.197Z,14.10
2019-03-23T07:15:30.486Z,14.40
2019-03-23T07:18:00.671Z,14.60
2019-03-23T07:20:30.671Z,15.20
2019-03-23T07:22:59.851Z,16.10
2019-03-23T07:25:29.162Z,16.70
2019-03-23T07:27:58.336Z,16.90
2019-03-23T07:30:27.175Z,17.20
2019-03-23T07:32:55.826Z,17.80
2019-03-23T07:35:25.085Z,18.70
2019-03-23T07:37:53.893Z,19.40
2019-03-23T07:40:23.333Z,19.50
2019-03-23T07:42:52.104Z,19.80
2019-03-23T07:45:21.191Z,19.70
2019-03-23T07:47:50.781Z,20.70
2019-03-23T07:50:19.678Z,21.30
2019-03-23T07:52:48.657Z,21.40
2019-03-23T07:55:17.792Z,21.10
2019-03-23T07:57:46.740Z,20.40
2019-03-23T08:00:18.258Z,19.90
2019-03-23T08:02:47.332Z,19.80
2019-03-23T08:05:16.528Z,20.00
2019-03-23T08:07:47.485Z,20.00
2019-03-23T08:10:29.658Z,20.80
2019-03-23T08:12:58.769Z,20.00
2019-03-23T08:15:28.099Z,20.90
2019-03-23T08:17:59.332Z,20.90
2019-03-23T08:20:28.214Z,20.90
2019-03-23T08:22:58.297Z,20.30
2019-03-23T08:25:30.241Z,20.50
2019-03-23T08:28:01.439Z,20.40
2019-03-23T08:30:30.512Z,21.10
2019-03-23T08:32:59.543Z,21.70
2019-03-23T08:35:29.149Z,21.90
2019-03-23T08:37:58.415Z,22.80
2019-03-23T08:40:35.659Z,23.10
2019-03-23T08:43:04.911Z,22.60
2019-03-23T08:45:34.607Z,21.60
2019-03-23T08:48:03.771Z,22.10
2019-03-23T08:50:33.139Z,22.30
2019-03-23T08:53:03.184Z,22.70
2019-03-23T08:55:33.801Z,23.30
2019-03-23T08:58:03.090Z,23.50
2019-03-23T09:00:32.578Z,24.20
2019-03-23T09:03:03.757Z,24.20
2019-03-23T09:05:33.711Z,23.10
2019-03-23T09:08:03.210Z,23.30
2019-03-23T09:10:34.875Z,24.00
2019-03-23T09:13:04.286Z,24.30
2019-03-23T09:15:34.364Z,24.40
2019-03-23T09:18:04.471Z,24.20
2019-03-23T09:20:34.334Z,24.70
2019-03-23T09:23:03.923Z,24.70
2019-03-23T09:25:34.511Z,25.80
2019-03-23T09:28:03.616Z,26.60
2019-03-23T09:30:33.309Z,25.70
2019-03-23T09:33:02.361Z,25.30
2019-03-23T09:35:31.892Z,25.80
2019-03-23T09:38:01.423Z,25.20
2019-03-23T09:40:30.663Z,24.60
2019-03-23T09:42:59.566Z,24.60
2019-03-23T09:45:29.377Z,25.00
2019-03-23T09:47:58.448Z,25.00
2019-03-23T09:50:27.373Z,26.10
2019-03-23T09:52:56.809Z,26.70
2019-03-23T09:55:28.573Z,27.50
2019-03-23T09:57:56.926Z,27.50
2019-03-23T10:00:25.704Z,27.90
2019-03-23T10:02:56.630Z,27.70
2019-03-23T10:05:29.729Z,27.40
2019-03-23T10:07:58.478Z,27.90
2019-03-23T10:10:27.922Z,27.80
2019-03-23T10:12:56.911Z,26.40
2019-03-23T10:15:26.402Z,26.70
2019-03-23T10:17:55.850Z,26.20
2019-03-23T10:20:24.638Z,26.60
2019-03-23T10:22:53.662Z,27.90
2019-03-23T10:25:23.223Z,27.90
2019-03-23T10:27:52.007Z,26.60
2019-03-23T10:30:24.557Z,26.30
2019-03-23T10:32:54.292Z,26.40
2019-03-23T10:35:23.469Z,26.50
2019-03-23T10:37:52.233Z,24.10
2019-03-23T10:40:31.902Z,22.90
2019-03-23T10:42:54.078Z,22.60
2019-03-23T10:45:23.069Z,24.20
2019-03-23T10:47:52.356Z,23.80
2019-03-23T10:50:21.496Z,23.00
2019-03-23T10:52:51.030Z,22.50
2019-03-23T10:55:19.829Z,22.70
2019-03-23T10:57:48.814Z,22.80
2019-03-23T11:00:17.501Z,22.90
2019-03-23T11:02:47.275Z,23.10
2019-03-23T11:05:16.695Z,23.50
2019-03-23T11:07:46.682Z,24.20
2019-03-23T11:10:15.394Z,24.60
2019-03-23T11:12:44.577Z,23.90
2019-03-23T11:15:13.454Z,24.10
2019-03-23T11:17:45.210Z,23.80
2019-03-23T11:20:16.431Z,24.90
2019-03-23T11:22:45.335Z,22.30
2019-03-23T11:25:14.851Z,21.70
2019-03-23T11:27:43.712Z,20.20
2019-03-23T11:30:13.566Z,19.60
2019-03-23T11:32:42.483Z,19.30
2019-03-23T11:35:11.638Z,18.70
2019-03-23T11:37:40.938Z,18.40
2019-03-23T11:40:11.032Z,18.50
2019-03-23T11:42:49.398Z,18.30
2019-03-23T11:45:11.188Z,18.20
2019-03-23T11:47:40.547Z,18.20
2019-03-23T11:50:10.022Z,18.50
2019-03-23T11:52:38.960Z,18.60
2019-03-23T11:55:08.432Z,18.50
2019-03-23T11:57:38.389Z,18.40
2019-03-23T12:00:09.869Z,18.40
2019-03-23T12:02:38.855Z,18.40
2019-03-23T12:05:09.475Z,18.50
2019-03-23T12:07:38.439Z,18.60
2019-03-23T12:10:10.836Z,18.30
2019-03-23T12:12:45.473Z,18.10
2019-03-23T12:15:15.588Z,18.30
2019-03-23T12:17:45.651Z,18.40
2019-03-23T12:20:16.298Z,18.10
2019-03-23T12:22:45.755Z,17.90
2019-03-23T12:25:14.872Z,17.80
2019-03-23T12:27:45.550Z,17.80
2019-03-23T12:30:15.671Z,17.60
2019-03-23T12:32:46.791Z,18.00
2019-03-23T12:35:16.449Z,18.00
2019-03-23T12:37:45.641Z,18.30
2019-03-23T12:40:16.324Z,18.30
2019-03-23T12:42:45.277Z,18.30
2019-03-23T12:45:15.378Z,18.30
2019-03-23T12:47:45.271Z,18.20
2019-03-23T12:50:14.855Z,18.10
2019-03-23T12:52:43.810Z,18.30
2019-03-23T12:55:13.298Z,18.20
2019-03-23T12:57:42.779Z,18.00
2019-03-23T13:00:12.921Z,18.20
2019-03-23T13:02:41.983Z,18.40
2019-03-23T13:05:11.115Z,18.60
2019-03-23T13:07:40.753Z,18.60
2019-03-23T13:10:11.972Z,18.50
2019-03-23T13:12:41.202Z,18.30
2019-03-23T13:15:10.784Z,18.40
2019-03-23T13:17:41.029Z,18.20
2019-03-23T13:20:10.426Z,19.60
2019-03-23T13:22:39.757Z,18.10
2019-03-23T13:25:09.638Z,18.30
2019-03-23T13:27:39.052Z,18.10
2019-03-23T13:30:09.508Z,18.20
2019-03-23T13:32:42.864Z,18.30
2019-03-23T13:35:12.105Z,19.60
2019-03-23T13:37:41.339Z,18.40
2019-03-23T13:40:12.628Z,18.40
2019-03-23T13:42:41.938Z,18.20
2019-03-23T13:45:12.100Z,18.10
2019-03-23T13:47:41.070Z,18.00
2019-03-23T13:50:11.633Z,18.10
2019-03-23T13:52:41.013Z,18.00
2019-03-23T13:55:24.366Z,18.20
2019-03-23T13:57:53.403Z,18.30
2019-03-23T14:00:23.259Z,18.30
2019-03-23T14:02:52.859Z,18.30
2019-03-23T14:05:21.594Z,18.40
2019-03-23T14:07:50.398Z,18.30
2019-03-23T14:10:19.274Z,18.40
2019-03-23T14:12:48.236Z,18.50
2019-03-23T14:15:17.076Z,18.50
2019-03-23T14:17:46.600Z,18.50
2019-03-23T14:20:15.668Z,18.50
2019-03-23T14:22:47.747Z,18.50
2019-03-23T14:25:16.656Z,18.60
2019-03-23T14:27:45.561Z,18.60
2019-03-23T14:30:14.344Z,18.40
2019-03-23T14:32:43.762Z,18.40
2019-03-23T14:35:13.421Z,18.40
2019-03-23T14:37:42.225Z,18.40
2019-03-23T14:40:11.420Z,18.40
2019-03-23T14:42:40.741Z,18.40
2019-03-23T14:45:09.793Z,18.30
2019-03-23T14:47:40.840Z,18.20
2019-03-23T14:50:12.794Z,18.20
2019-03-23T14:52:42.057Z,19.50
2019-03-23T14:55:11.259Z,18.10
2019-03-23T14:57:41.390Z,18.10
2019-03-23T15:00:12.863Z,18.20
2019-03-23T15:02:43.493Z,18.20
2019-03-23T15:05:13.378Z,18.10
2019-03-23T15:07:47.082Z,18.10
2019-03-23T15:10:17.711Z,19.20
2019-03-23T15:12:46.743Z,18.10
2019-03-23T15:15:17.015Z,17.80
2019-03-23T15:17:48.995Z,17.80
2019-03-23T15:20:18.289Z,17.80
2019-03-23T15:22:47.778Z,17.70
2019-03-23T15:25:17.259Z,17.70
2019-03-23T15:27:46.067Z,17.70
2019-03-23T15:30:15.084Z,17.70
2019-03-23T15:32:43.942Z,17.70
2019-03-23T15:35:12.710Z,17.80
2019-03-23T15:37:41.594Z,17.80
2019-03-23T15:40:11.022Z,17.80
2019-03-23T15:42:40.185Z,17.70
2019-03-23T15:45:11.390Z,17.60
2019-03-23T15:47:40.293Z,17.50
2019-03-23T15:50:11.174Z,17.50
2019-03-23T15:52:40.138Z,17.50
2019-03-23T15:55:10.328Z,17.50
2019-03-23T15:57:39.198Z,17.40
2019-03-23T16:00:09.607Z,17.40
2019-03-23T16:02:39.157Z,17.30
2019-03-23T16:05:08.831Z,17.20
2019-03-23T16:07:37.611Z,17.20
2019-03-23T16:10:07.444Z,17.30
2019-03-23T16:12:37.732Z,17.30
2019-03-23T16:15:09.446Z,17.20
2019-03-23T16:17:39.011Z,17.10
2019-03-23T16:20:10.160Z,17.10
2019-03-23T16:22:41.748Z,17.00
2019-03-23T16:25:12.318Z,17.00
2019-03-23T16:27:41.185Z,17.00
2019-03-23T16:30:16.257Z,16.90
2019-03-23T16:32:45.180Z,18.40
2019-03-23T16:35:14.527Z,16.70
2019-03-23T16:37:43.319Z,16.70
2019-03-23T16:40:12.671Z,16.60
2019-03-23T16:42:45.654Z,16.50
2019-03-23T16:45:14.347Z,16.50
2019-03-23T16:47:43.308Z,16.50
2019-03-23T16:50:12.802Z,16.40
2019-03-23T16:52:41.868Z,16.30
2019-03-23T16:55:10.883Z,16.30
2019-03-23T16:57:41.501Z,16.10
2019-03-23T17:00:12.908Z,16.00
2019-03-23T17:02:41.663Z,15.80
2019-03-23T17:05:10.546Z,15.60
2019-03-23T17:07:39.775Z,15.50
2019-03-23T17:10:31.764Z,15.50
2019-03-23T17:13:00.963Z,15.50
2019-03-23T17:15:30.123Z,15.30
2019-03-23T17:17:59.296Z,15.10
2019-03-23T17:20:29.537Z,15.00
2019-03-23T17:22:58.368Z,14.70
2019-03-23T17:25:30.701Z,14.50
2019-03-23T17:27:59.744Z,14.40
2019-03-23T17:30:29.108Z,14.30
2019-03-23T17:32:58.033Z,14.20
2019-03-23T17:35:28.322Z,14.10
2019-03-23T17:37:57.984Z,13.90
2019-03-23T17:40:26.882Z,13.60
2019-03-23T17:43:05.565Z,13.50
2019-03-23T17:45:27.379Z,13.40
2019-03-23T17:47:59.367Z,13.30
2019-03-23T17:50:31.863Z,13.20
2019-03-23T17:53:00.807Z,13.00
2019-03-23T17:55:29.647Z,12.80
2019-03-23T17:57:59.101Z,12.60
2019-03-23T18:00:29.744Z,12.60
2019-03-23T18:02:59.007Z,12.30
2019-03-23T18:05:27.831Z,12.20
2019-03-23T18:07:57.494Z,12.00
2019-03-23T18:10:28.281Z,11.90
2019-03-23T18:12:57.908Z,11.80
2019-03-23T18:15:26.657Z,11.70
2019-03-23T18:17:55.400Z,11.60
2019-03-23T18:20:24.745Z,11.50
2019-03-23T18:22:53.471Z,11.30
2019-03-23T18:25:23.254Z,11.20
2019-03-23T18:27:52.021Z,11.50
2019-03-23T18:30:35.529Z,11.00
2019-03-23T18:33:05.112Z,10.80
2019-03-23T18:35:35.186Z,10.80
2019-03-23T18:38:04.489Z,10.80
2019-03-23T18:40:34.337Z,10.90
2019-03-23T18:43:04.370Z,10.90
2019-03-23T18:45:35.715Z,10.90
2019-03-23T18:48:06.594Z,10.70
2019-03-23T18:50:36.406Z,10.60
2019-03-23T18:53:05.586Z,10.50
2019-03-23T18:55:34.778Z,10.50
2019-03-23T18:58:03.859Z,10.50
2019-03-23T19:00:42.220Z,10.50
2019-03-23T19:03:11.469Z,10.40
2019-03-23T19:05:40.475Z,10.10
2019-03-23T19:08:11.759Z,9.90
2019-03-23T19:10:41.393Z,9.80
2019-03-23T19:13:11.612Z,9.70
2019-03-23T19:15:40.385Z,9.70
2019-03-23T19:18:09.462Z,9.50
2019-03-23T19:20:38.553Z,9.50
2019-03-23T19:23:08.998Z,9.40
2019-03-23T19:25:37.776Z,9.30
2019-03-23T19:28:07.414Z,9.10
2019-03-23T19:30:36.517Z,9.00
2019-03-23T19:33:06.350Z,8.90
2019-03-23T19:35:36.475Z,8.90
2019-03-23T19:38:06.150Z,8.80
2019-03-23T19:40:35.038Z,8.70
2019-03-23T19:43:03.978Z,8.60
2019-03-23T19:45:35.570Z,8.60
2019-03-23T19:48:04.664Z,8.50
2019-03-23T19:50:34.116Z,8.40
2019-03-23T19:53:03.473Z,8.40
2019-03-23T19:55:34.627Z,8.50
2019-03-23T19:58:03.725Z,8.70
2019-03-23T20:00:33.721Z,8.80
2019-03-23T20:03:03.354Z,8.80
2019-03-23T20:05:32.676Z,8.70
2019-03-23T20:08:01.500Z,8.70
2019-03-23T20:10:30.474Z,8.50
2019-03-23T20:13:00.112Z,8.40
2019-03-23T20:15:29.138Z,8.50
2019-03-23T20:17:58.620Z,8.80
2019-03-23T20:20:27.738Z,8.80
2019-03-23T20:22:57.665Z,8.90
2019-03-23T20:25:26.422Z,8.80
2019-03-23T20:27:55.808Z,8.80
2019-03-23T20:30:24.598Z,8.70
2019-03-23T20:32:55.576Z,8.70
2019-03-23T20:35:24.769Z,8.60
2019-03-23T20:37:54.514Z,8.40
2019-03-23T20:40:23.654Z,8.50
2019-03-23T20:42:53.409Z,8.60
2019-03-23T20:45:29.902Z,8.60
2019-03-23T20:47:59.187Z,8.50
2019-03-23T20:50:28.138Z,8.50
2019-03-23T20:52:57.377Z,8.50
2019-03-23T20:55:28.633Z,8.60
2019-03-23T20:57:57.716Z,8.70
2019-03-23T21:00:28.095Z,8.80
2019-03-23T21:02:57.682Z,8.80
2019-03-23T21:05:33.771Z,8.90
2019-03-23T21:07:57.765Z,9.00
2019-03-23T21:10:26.963Z,9.00
2019-03-23T21:12:56.126Z,9.00
2019-03-23T21:15:25.120Z,9.00
2019-03-23T21:17:55.174Z,8.90
2019-03-23T21:20:24.111Z,8.80
2019-03-23T21:22:53.204Z,8.70
2019-03-23T21:25:25.673Z,8.70
2019-03-23T21:27:55.164Z,8.70
2019-03-23T21:30:24.090Z,8.70
2019-03-23T21:32:54.381Z,8.70
2019-03-23T21:35:23.754Z,8.70
2019-03-23T21:37:53.134Z,8.70
2019-03-23T21:40:22.174Z,8.60
2019-03-23T21:42:52.278Z,8.60
2019-03-23T21:45:21.746Z,8.60
2019-03-23T21:47:50.846Z,8.50
2019-03-23T21:50:20.118Z,8.40
2019-03-23T21:52:49.068Z,8.30
2019-03-23T21:55:18.574Z,8.20
2019-03-23T21:57:48.513Z,8.10
2019-03-23T22:00:30.771Z,8.00
2019-03-23T22:02:59.857Z,8.00
2019-03-23T22:05:28.709Z,8.00
2019-03-23T22:07:58.011Z,8.00
2019-03-23T22:10:28.660Z,8.00
2019-03-23T22:12:57.608Z,8.00
2019-03-23T22:15:31.051Z,7.90
2019-03-23T22:18:00.146Z,7.80
2019-03-23T22:20:29.965Z,7.80
2019-03-23T22:22:58.853Z,7.70
2019-03-23T22:25:27.960Z,7.80
2019-03-23T22:27:57.436Z,7.80
2019-03-23T22:30:26.230Z,7.90
2019-03-23T22:32:55.297Z,8.00
2019-03-23T22:35:25.929Z,8.00
2019-03-23T22:37:55.861Z,7.90
2019-03-23T22:40:24.721Z,7.90
2019-03-23T22:42:53.495Z,7.80
2019-03-23T22:45:22.345Z,7.70
2019-03-23T22:47:52.978Z,7.60
2019-03-23T22:50:21.954Z,7.60
2019-03-23T22:52:52.482Z,7.50
2019-03-23T22:55:22.771Z,7.40
2019-03-23T22:57:53.474Z,7.20
2019-03-23T23:00:32.799Z,7.20
2019-03-23T23:03:02.049Z,7.20
2019-03-23T23:05:31.293Z,7.20
2019-03-23T23:08:01.891Z,7.10
2019-03-23T23:10:31.148Z,7.00
2019-03-23T23:13:00.050Z,7.00
2019-03-23T23:15:29.580Z,6.90
2019-03-23T23:17:58.853Z,6.90
2019-03-23T23:20:28.283Z,6.90
2019-03-23T23:22:57.120Z,6.80
2019-03-23T23:25:26.334Z,6.80
2019-03-23T23:27:55.204Z,6.80
2019-03-23T23:30:24.006Z,6.80
2019-03-23T23:32:53.787Z,6.80
2019-03-23T23:35:25.690Z,6.70
2019-03-23T23:37:54.989Z,6.70
2019-03-23T23:40:24.627Z,6.70
2019-03-23T23:42:56.777Z,6.70
2019-03-23T23:45:26.099Z,6.70
2019-03-23T23:47:55.286Z,6.70
2019-03-23T23:50:24.531Z,6.60
2019-03-23T23:52:53.658Z,6.60
2019-03-23T23:55:22.413Z,6.60
2019-03-23T23:57:51.751Z,6.30
